sensor_id;sensor_type;location;lat;lon;timestamp;P1;durP1;ratioP1;P2;durP2;ratioP2
65234;SDS011;51820;48.374;10.930;2022-11-04T00:00:46;10.68;;;5.55;;
65234;SDS011;51820;48.374;10.930;2022-11-04T00:03:14;11.67;;;5.67;;
65234;SDS011;51820;48.374;10.930;2022-11-04T00:05:43;9.60;;;5.20;;
65234;SDS011;51820;48.374;10.930;2022-11-04T00:08:12;11.98;;;4.72;;
65234;SDS011;51820;48.374;10.930;2022-11-04T00:10:55;9.15;;;4.30;;
65234;SDS011;51820;48.374;10.930;2022-11-04T00:13:44;9.75;;;4.30;;
65234;SDS011;51820;48.374;10.930;2022-11-04T00:16:15;9.73;;;3.80;;
65234;SDS011;51820;48.374;10.930;2022-11-04T00:19:01;9.13;;;3.63;;
65234;SDS011;51820;48.374;10.930;2022-11-04T00:21:30;7.78;;;3.75;;
65234;SDS011;51820;48.374;10.930;2022-11-04T00:24:17;7.60;;;3.40;;
65234;SDS011;51820;48.374;10.930;2022-11-04T00:27:02;10.65;;;3.55;;
65234;SDS011;51820;48.374;10.930;2022-11-04T00:29:48;7.57;;;2.73;;
65234;SDS011;51820;48.374;10.930;2022-11-04T00:32:16;6.78;;;3.03;;
65234;SDS011;51820;48.374;10.930;2022-11-04T00:35:02;6.53;;;2.70;;
65234;SDS011;51820;48.374;10.930;2022-11-04T00:37:30;9.80;;;2.90;;
65234;SDS011;51820;48.374;10.930;2022-11-04T00:40:00;7.70;;;2.55;;
65234;SDS011;51820;48.374;10.930;2022-11-04T00:42:28;6.93;;;2.20;;
65234;SDS011;51820;48.374;10.930;2022-11-04T00:44:56;6.45;;;2.35;;
65234;SDS011;51820;48.374;10.930;2022-11-04T00:47:24;7.15;;;2.10;;
65234;SDS011;51820;48.374;10.930;2022-11-04T00:49:52;5.85;;;1.90;;
65234;SDS011;51820;48.374;10.930;2022-11-04T00:52:21;6.03;;;2.20;;
65234;SDS011;51820;48.374;10.930;2022-11-04T00:54:49;6.60;;;2.20;;
65234;SDS011;51820;48.374;10.930;2022-11-04T00:57:19;6.18;;;2.10;;
65234;SDS011;51820;48.374;10.930;2022-11-04T00:59:47;6.20;;;2.00;;
65234;SDS011;51820;48.374;10.930;2022-11-04T01:02:16;5.13;;;1.90;;
65234;SDS011;51820;48.374;10.930;2022-11-04T01:04:45;5.40;;;1.80;;
65234;SDS011;51820;48.374;10.930;2022-11-04T01:07:13;4.13;;;1.50;;
65234;SDS011;51820;48.374;10.930;2022-11-04T01:09:42;5.70;;;1.50;;
65234;SDS011;51820;48.374;10.930;2022-11-04T01:12:10;9.52;;;1.58;;
65234;SDS011;51820;48.374;10.930;2022-11-04T01:14:39;4.63;;;1.30;;
65234;SDS011;51820;48.374;10.930;2022-11-04T01:17:08;4.32;;;1.38;;
65234;SDS011;51820;48.374;10.930;2022-11-04T01:19:36;6.13;;;1.50;;
65234;SDS011;51820;48.374;10.930;2022-11-04T01:22:04;6.35;;;1.45;;
65234;SDS011;51820;48.374;10.930;2022-11-04T01:24:33;5.15;;;1.30;;
65234;SDS011;51820;48.374;10.930;2022-11-04T01:27:01;5.82;;;1.20;;
65234;SDS011;51820;48.374;10.930;2022-11-04T01:29:30;9.00;;;1.27;;
65234;SDS011;51820;48.374;10.930;2022-11-04T01:32:00;4.13;;;1.00;;
65234;SDS011;51820;48.374;10.930;2022-11-04T01:34:28;6.07;;;1.20;;
65234;SDS011;51820;48.374;10.930;2022-11-04T01:36:57;3.90;;;1.02;;
65234;SDS011;51820;48.374;10.930;2022-11-04T01:39:25;4.00;;;0.88;;
65234;SDS011;51820;48.374;10.930;2022-11-04T01:41:53;4.70;;;1.15;;
65234;SDS011;51820;48.374;10.930;2022-11-04T01:47:18;3.38;;;0.90;;
65234;SDS011;51820;48.374;10.930;2022-11-04T01:49:50;4.90;;;1.00;;
65234;SDS011;51820;48.374;10.930;2022-11-04T01:52:23;3.88;;;0.75;;
65234;SDS011;51820;48.374;10.930;2022-11-04T01:54:56;7.82;;;0.90;;
65234;SDS011;51820;48.374;10.930;2022-11-04T01:57:33;3.60;;;0.90;;
65234;SDS011;51820;48.374;10.930;2022-11-04T02:00:04;3.78;;;0.80;;
65234;SDS011;51820;48.374;10.930;2022-11-04T02:02:43;3.80;;;0.90;;
65234;SDS011;51820;48.374;10.930;2022-11-04T02:05:17;5.00;;;1.02;;
65234;SDS011;51820;48.374;10.930;2022-11-04T02:07:46;3.40;;;0.70;;
65234;SDS011;51820;48.374;10.930;2022-11-04T02:10:19;3.50;;;0.80;;
65234;SDS011;51820;48.374;10.930;2022-11-04T02:12:51;5.38;;;1.20;;
65234;SDS011;51820;48.374;10.930;2022-11-04T02:15:20;3.95;;;0.88;;
65234;SDS011;51820;48.374;10.930;2022-11-04T02:18:01;3.20;;;0.80;;
65234;SDS011;51820;48.374;10.930;2022-11-04T02:20:50;3.42;;;0.80;;
65234;SDS011;51820;48.374;10.930;2022-11-04T02:26:55;3.38;;;0.80;;
65234;SDS011;51820;48.374;10.930;2022-11-04T02:29:57;3.38;;;0.80;;
65234;SDS011;51820;48.374;10.930;2022-11-04T02:32:41;3.42;;;0.95;;
65234;SDS011;51820;48.374;10.930;2022-11-04T02:35:25;3.13;;;0.60;;
65234;SDS011;51820;48.374;10.930;2022-11-04T02:38:07;3.00;;;0.70;;
65234;SDS011;51820;48.374;10.930;2022-11-04T02:40:41;3.05;;;0.77;;
65234;SDS011;51820;48.374;10.930;2022-11-04T02:43:20;3.65;;;0.75;;
65234;SDS011;51820;48.374;10.930;2022-11-04T02:45:54;3.88;;;0.80;;
65234;SDS011;51820;48.374;10.930;2022-11-04T02:48:30;3.28;;;0.80;;
65234;SDS011;51820;48.374;10.930;2022-11-04T02:51:05;3.67;;;0.60;;
65234;SDS011;51820;48.374;10.930;2022-11-04T02:53:40;2.72;;;0.70;;
65234;SDS011;51820;48.374;10.930;2022-11-04T02:56:11;3.47;;;0.75;;
65234;SDS011;51820;48.374;10.930;2022-11-04T02:58:42;4.13;;;0.90;;
65234;SDS011;51820;48.374;10.930;2022-11-04T03:01:16;5.13;;;0.77;;
65234;SDS011;51820;48.374;10.930;2022-11-04T03:03:48;3.37;;;0.53;;
65234;SDS011;51820;48.374;10.930;2022-11-04T03:06:23;3.00;;;0.68;;
65234;SDS011;51820;48.374;10.930;2022-11-04T03:08:53;3.35;;;0.63;;
65234;SDS011;51820;48.374;10.930;2022-11-04T03:11:23;2.60;;;0.60;;
65234;SDS011;51820;48.374;10.930;2022-11-04T03:13:54;3.67;;;0.60;;
65234;SDS011;51820;48.374;10.930;2022-11-04T03:16:27;3.10;;;0.70;;
65234;SDS011;51820;48.374;10.930;2022-11-04T03:19:00;2.60;;;0.50;;
65234;SDS011;51820;48.374;10.930;2022-11-04T03:21:36;3.13;;;0.60;;
65234;SDS011;51820;48.374;10.930;2022-11-04T03:24:09;2.53;;;0.50;;
65234;SDS011;51820;48.374;10.930;2022-11-04T03:26:40;2.65;;;0.50;;
65234;SDS011;51820;48.374;10.930;2022-11-04T03:29:17;2.57;;;0.50;;
65234;SDS011;51820;48.374;10.930;2022-11-04T03:31:53;2.55;;;0.50;;
65234;SDS011;51820;48.374;10.930;2022-11-04T03:34:29;3.30;;;0.50;;
65234;SDS011;51820;48.374;10.930;2022-11-04T03:36:57;2.45;;;0.40;;
65234;SDS011;51820;48.374;10.930;2022-11-04T03:39:27;3.35;;;0.50;;
65234;SDS011;51820;48.374;10.930;2022-11-04T03:41:55;2.70;;;0.50;;
65234;SDS011;51820;48.374;10.930;2022-11-04T03:44:26;2.33;;;0.45;;
65234;SDS011;51820;48.374;10.930;2022-11-04T03:46:58;2.17;;;0.40;;
65234;SDS011;51820;48.374;10.930;2022-11-04T03:49:29;2.55;;;0.50;;
65234;SDS011;51820;48.374;10.930;2022-11-04T03:51:58;2.03;;;0.40;;
65234;SDS011;51820;48.374;10.930;2022-11-04T03:54:26;2.10;;;0.40;;
65234;SDS011;51820;48.374;10.930;2022-11-04T03:57:01;2.20;;;0.50;;
65234;SDS011;51820;48.374;10.930;2022-11-04T03:59:53;2.55;;;0.50;;
65234;SDS011;51820;48.374;10.930;2022-11-04T04:02:37;1.63;;;0.40;;
65234;SDS011;51820;48.374;10.930;2022-11-04T04:05:14;2.58;;;0.50;;
65234;SDS011;51820;48.374;10.930;2022-11-04T04:07:48;2.30;;;0.40;;
65234;SDS011;51820;48.374;10.930;2022-11-04T04:10:25;2.03;;;0.50;;
65234;SDS011;51820;48.374;10.930;2022-11-04T04:13:09;2.72;;;0.50;;
65234;SDS011;51820;48.374;10.930;2022-11-04T04:15:49;2.83;;;0.40;;
65234;SDS011;51820;48.374;10.930;2022-11-04T04:18:25;2.30;;;0.50;;
65234;SDS011;51820;48.374;10.930;2022-11-04T04:21:00;2.03;;;0.40;;
65234;SDS011;51820;48.374;10.930;2022-11-04T04:23:34;2.58;;;0.50;;
65234;SDS011;51820;48.374;10.930;2022-11-04T04:26:21;2.60;;;0.50;;
65234;SDS011;51820;48.374;10.930;2022-11-04T04:29:09;2.20;;;0.50;;
65234;SDS011;51820;48.374;10.930;2022-11-04T04:31:38;2.85;;;0.70;;
65234;SDS011;51820;48.374;10.930;2022-11-04T04:34:20;2.47;;;0.50;;
65234;SDS011;51820;48.374;10.930;2022-11-04T04:36:52;1.88;;;0.40;;
65234;SDS011;51820;48.374;10.930;2022-11-04T04:39:27;2.17;;;0.40;;
65234;SDS011;51820;48.374;10.930;2022-11-04T04:42:22;3.20;;;0.60;;
65234;SDS011;51820;48.374;10.930;2022-11-04T04:45:09;2.13;;;0.50;;
65234;SDS011;51820;48.374;10.930;2022-11-04T04:47:45;3.73;;;0.50;;
65234;SDS011;51820;48.374;10.930;2022-11-04T04:50:16;4.10;;;1.00;;
65234;SDS011;51820;48.374;10.930;2022-11-04T04:52:49;2.28;;;0.43;;
65234;SDS011;51820;48.374;10.930;2022-11-04T04:55:19;3.28;;;0.65;;
65234;SDS011;51820;48.374;10.930;2022-11-04T04:57:50;1.83;;;0.40;;
65234;SDS011;51820;48.374;10.930;2022-11-04T05:00:19;2.57;;;0.53;;
65234;SDS011;51820;48.374;10.930;2022-11-04T05:03:08;2.00;;;0.40;;
65234;SDS011;51820;48.374;10.930;2022-11-04T05:05:39;3.10;;;0.40;;
65234;SDS011;51820;48.374;10.930;2022-11-04T05:08:07;2.42;;;0.50;;
65234;SDS011;51820;48.374;10.930;2022-11-04T05:10:36;2.38;;;0.50;;
65234;SDS011;51820;48.374;10.930;2022-11-04T05:13:05;2.17;;;0.40;;
65234;SDS011;51820;48.374;10.930;2022-11-04T05:15:52;2.42;;;0.40;;
65234;SDS011;51820;48.374;10.930;2022-11-04T05:18:20;1.90;;;0.50;;
65234;SDS011;51820;48.374;10.930;2022-11-04T05:20:50;3.63;;;0.90;;
65234;SDS011;51820;48.374;10.930;2022-11-04T05:23:19;3.05;;;0.60;;
65234;SDS011;51820;48.374;10.930;2022-11-04T05:25:47;2.70;;;0.60;;
65234;SDS011;51820;48.374;10.930;2022-11-04T05:28:15;2.63;;;0.40;;
65234;SDS011;51820;48.374;10.930;2022-11-04T05:30:44;3.28;;;0.50;;
65234;SDS011;51820;48.374;10.930;2022-11-04T05:33:12;2.70;;;0.50;;
65234;SDS011;51820;48.374;10.930;2022-11-04T05:35:40;2.88;;;0.60;;
65234;SDS011;51820;48.374;10.930;2022-11-04T05:38:10;3.63;;;0.50;;
65234;SDS011;51820;48.374;10.930;2022-11-04T05:40:39;2.95;;;0.60;;
65234;SDS011;51820;48.374;10.930;2022-11-04T05:43:07;3.15;;;0.65;;
65234;SDS011;51820;48.374;10.930;2022-11-04T05:45:36;3.97;;;0.70;;
65234;SDS011;51820;48.374;10.930;2022-11-04T05:48:04;4.35;;;1.08;;
65234;SDS011;51820;48.374;10.930;2022-11-04T05:50:33;3.73;;;0.60;;
65234;SDS011;51820;48.374;10.930;2022-11-04T05:53:02;3.70;;;0.60;;
65234;SDS011;51820;48.374;10.930;2022-11-04T05:55:32;5.25;;;0.73;;
65234;SDS011;51820;48.374;10.930;2022-11-04T05:58:00;3.83;;;0.80;;
65234;SDS011;51820;48.374;10.930;2022-11-04T06:00:29;4.00;;;0.70;;
65234;SDS011;51820;48.374;10.930;2022-11-04T06:02:57;8.80;;;0.70;;
65234;SDS011;51820;48.374;10.930;2022-11-04T06:05:27;4.50;;;0.70;;
65234;SDS011;51820;48.374;10.930;2022-11-04T06:07:56;2.90;;;0.60;;
65234;SDS011;51820;48.374;10.930;2022-11-04T06:10:24;3.20;;;0.60;;
65234;SDS011;51820;48.374;10.930;2022-11-04T06:12:54;2.70;;;0.50;;
65234;SDS011;51820;48.374;10.930;2022-11-04T06:15:22;5.30;;;0.50;;
65234;SDS011;51820;48.374;10.930;2022-11-04T06:17:51;4.03;;;0.60;;
65234;SDS011;51820;48.374;10.930;2022-11-04T06:20:19;3.17;;;0.57;;
65234;SDS011;51820;48.374;10.930;2022-11-04T06:22:48;3.25;;;0.60;;
65234;SDS011;51820;48.374;10.930;2022-11-04T06:25:16;3.00;;;0.60;;
65234;SDS011;51820;48.374;10.930;2022-11-04T06:27:45;3.70;;;0.60;;
65234;SDS011;51820;48.374;10.930;2022-11-04T06:30:17;1.85;;;0.50;;
65234;SDS011;51820;48.374;10.930;2022-11-04T06:32:45;3.33;;;0.73;;
65234;SDS011;51820;48.374;10.930;2022-11-04T06:35:14;3.45;;;0.60;;
65234;SDS011;51820;48.374;10.930;2022-11-04T06:37:42;3.45;;;0.63;;
65234;SDS011;51820;48.374;10.930;2022-11-04T06:40:11;3.50;;;0.70;;
65234;SDS011;51820;48.374;10.930;2022-11-04T06:42:39;4.40;;;0.65;;
65234;SDS011;51820;48.374;10.930;2022-11-04T06:45:11;3.85;;;0.70;;
65234;SDS011;51820;48.374;10.930;2022-11-04T06:47:41;5.57;;;1.20;;
65234;SDS011;51820;48.374;10.930;2022-11-04T06:50:20;3.25;;;0.70;;
65234;SDS011;51820;48.374;10.930;2022-11-04T06:52:49;5.10;;;0.70;;
65234;SDS011;51820;48.374;10.930;2022-11-04T06:55:20;5.80;;;1.30;;
65234;SDS011;51820;48.374;10.930;2022-11-04T06:57:50;6.32;;;1.20;;
65234;SDS011;51820;48.374;10.930;2022-11-04T07:00:19;3.35;;;0.65;;
65234;SDS011;51820;48.374;10.930;2022-11-04T07:02:49;2.83;;;0.65;;
65234;SDS011;51820;48.374;10.930;2022-11-04T07:05:17;4.10;;;0.90;;
65234;SDS011;51820;48.374;10.930;2022-11-04T07:07:46;7.53;;;0.75;;
65234;SDS011;51820;48.374;10.930;2022-11-04T07:10:15;4.43;;;0.77;;
65234;SDS011;51820;48.374;10.930;2022-11-04T07:12:43;3.90;;;0.60;;
65234;SDS011;51820;48.374;10.930;2022-11-04T07:15:12;3.42;;;0.70;;
65234;SDS011;51820;48.374;10.930;2022-11-04T07:17:40;5.17;;;0.70;;
65234;SDS011;51820;48.374;10.930;2022-11-04T07:20:11;3.63;;;0.73;;
65234;SDS011;51820;48.374;10.930;2022-11-04T07:22:40;4.47;;;0.80;;
65234;SDS011;51820;48.374;10.930;2022-11-04T07:25:08;4.18;;;0.93;;
65234;SDS011;51820;48.374;10.930;2022-11-04T07:27:37;4.43;;;0.80;;
65234;SDS011;51820;48.374;10.930;2022-11-04T07:30:09;3.80;;;0.60;;
65234;SDS011;51820;48.374;10.930;2022-11-04T07:32:38;4.82;;;0.80;;
65234;SDS011;51820;48.374;10.930;2022-11-04T07:35:08;4.60;;;0.60;;
65234;SDS011;51820;48.374;10.930;2022-11-04T07:37:42;3.83;;;0.60;;
65234;SDS011;51820;48.374;10.930;2022-11-04T07:40:13;3.75;;;0.80;;
65234;SDS011;51820;48.374;10.930;2022-11-04T07:42:41;4.03;;;0.77;;
65234;SDS011;51820;48.374;10.930;2022-11-04T07:45:15;4.13;;;0.63;;
65234;SDS011;51820;48.374;10.930;2022-11-04T07:47:44;4.60;;;0.90;;
65234;SDS011;51820;48.374;10.930;2022-11-04T07:50:13;3.58;;;0.73;;
65234;SDS011;51820;48.374;10.930;2022-11-04T07:52:42;5.45;;;1.40;;
65234;SDS011;51820;48.374;10.930;2022-11-04T07:55:16;4.80;;;1.00;;
65234;SDS011;51820;48.374;10.930;2022-11-04T07:57:45;3.47;;;0.70;;
65234;SDS011;51820;48.374;10.930;2022-11-04T08:00:14;3.83;;;0.80;;
65234;SDS011;51820;48.374;10.930;2022-11-04T08:02:45;3.38;;;0.70;;
65234;SDS011;51820;48.374;10.930;2022-11-04T08:05:17;3.22;;;0.75;;
65234;SDS011;51820;48.374;10.930;2022-11-04T08:07:47;5.97;;;0.90;;
65234;SDS011;51820;48.374;10.930;2022-11-04T08:10:15;2.85;;;0.60;;
65234;SDS011;51820;48.374;10.930;2022-11-04T08:12:43;4.25;;;0.70;;
65234;SDS011;51820;48.374;10.930;2022-11-04T08:15:13;3.50;;;0.80;;
65234;SDS011;51820;48.374;10.930;2022-11-04T08:17:42;5.32;;;0.93;;
65234;SDS011;51820;48.374;10.930;2022-11-04T08:20:13;4.80;;;0.80;;
65234;SDS011;51820;48.374;10.930;2022-11-04T08:22:41;4.47;;;0.80;;
65234;SDS011;51820;48.374;10.930;2022-11-04T08:25:11;3.70;;;0.70;;
65234;SDS011;51820;48.374;10.930;2022-11-04T08:27:39;3.50;;;0.77;;
65234;SDS011;51820;48.374;10.930;2022-11-04T08:30:09;3.72;;;0.85;;
65234;SDS011;51820;48.374;10.930;2022-11-04T08:32:40;4.30;;;0.60;;
65234;SDS011;51820;48.374;10.930;2022-11-04T08:35:09;9.35;;;1.30;;
65234;SDS011;51820;48.374;10.930;2022-11-04T08:37:42;4.25;;;1.05;;
65234;SDS011;51820;48.374;10.930;2022-11-04T08:40:11;5.10;;;1.00;;
65234;SDS011;51820;48.374;10.930;2022-11-04T08:42:40;3.47;;;0.73;;
65234;SDS011;51820;48.374;10.930;2022-11-04T08:45:08;3.67;;;0.80;;
65234;SDS011;51820;48.374;10.930;2022-11-04T08:47:37;9.02;;;2.08;;
65234;SDS011;51820;48.374;10.930;2022-11-04T08:50:07;4.57;;;1.08;;
65234;SDS011;51820;48.374;10.930;2022-11-04T08:52:36;3.92;;;1.00;;
65234;SDS011;51820;48.374;10.930;2022-11-04T08:55:05;4.80;;;1.10;;
65234;SDS011;51820;48.374;10.930;2022-11-04T08:57:36;4.93;;;0.80;;
65234;SDS011;51820;48.374;10.930;2022-11-04T09:00:05;5.45;;;0.85;;
65234;SDS011;51820;48.374;10.930;2022-11-04T09:02:34;3.72;;;0.88;;
65234;SDS011;51820;48.374;10.930;2022-11-04T09:05:03;3.75;;;1.00;;
65234;SDS011;51820;48.374;10.930;2022-11-04T09:07:32;4.07;;;0.90;;
65234;SDS011;51820;48.374;10.930;2022-11-04T09:10:00;4.37;;;1.30;;
65234;SDS011;51820;48.374;10.930;2022-11-04T09:12:29;4.93;;;1.27;;
65234;SDS011;51820;48.374;10.930;2022-11-04T09:15:12;3.60;;;0.95;;
65234;SDS011;51820;48.374;10.930;2022-11-04T09:17:40;4.57;;;1.27;;
65234;SDS011;51820;48.374;10.930;2022-11-04T09:20:10;3.72;;;1.13;;
65234;SDS011;51820;48.374;10.930;2022-11-04T09:22:38;4.87;;;1.20;;
65234;SDS011;51820;48.374;10.930;2022-11-04T09:25:11;4.78;;;1.25;;
65234;SDS011;51820;48.374;10.930;2022-11-04T09:30:36;4.70;;;1.10;;
65234;SDS011;51820;48.374;10.930;2022-11-04T09:33:04;5.05;;;1.15;;
65234;SDS011;51820;48.374;10.930;2022-11-04T09:35:33;5.87;;;1.37;;
65234;SDS011;51820;48.374;10.930;2022-11-04T09:38:01;8.38;;;1.40;;
65234;SDS011;51820;48.374;10.930;2022-11-04T09:40:32;5.47;;;1.20;;
65234;SDS011;51820;48.374;10.930;2022-11-04T09:43:05;4.20;;;1.05;;
65234;SDS011;51820;48.374;10.930;2022-11-04T09:45:45;3.60;;;0.90;;
65234;SDS011;51820;48.374;10.930;2022-11-04T09:48:17;7.00;;;1.10;;
65234;SDS011;51820;48.374;10.930;2022-11-04T09:50:51;3.85;;;1.10;;
65234;SDS011;51820;48.374;10.930;2022-11-04T09:53:25;5.00;;;1.25;;
65234;SDS011;51820;48.374;10.930;2022-11-04T09:55:57;5.10;;;1.40;;
65234;SDS011;51820;48.374;10.930;2022-11-04T09:58:33;5.70;;;1.80;;
65234;SDS011;51820;48.374;10.930;2022-11-04T10:01:09;7.97;;;1.77;;
65234;SDS011;51820;48.374;10.930;2022-11-04T10:03:47;6.93;;;2.08;;
65234;SDS011;51820;48.374;10.930;2022-11-04T10:06:30;7.10;;;1.70;;
65234;SDS011;51820;48.374;10.930;2022-11-04T10:09:08;5.30;;;1.38;;
65234;SDS011;51820;48.374;10.930;2022-11-04T10:11:52;6.15;;;1.38;;
65234;SDS011;51820;48.374;10.930;2022-11-04T10:14:44;4.10;;;1.13;;
65234;SDS011;51820;48.374;10.930;2022-11-04T10:17:39;4.30;;;1.23;;
65234;SDS011;51820;48.374;10.930;2022-11-04T10:20:26;4.15;;;1.20;;
65234;SDS011;51820;48.374;10.930;2022-11-04T10:23:11;4.93;;;1.38;;
65234;SDS011;51820;48.374;10.930;2022-11-04T10:25:47;4.40;;;1.10;;
65234;SDS011;51820;48.374;10.930;2022-11-04T10:28:20;5.77;;;1.47;;
65234;SDS011;51820;48.374;10.930;2022-11-04T10:30:54;5.00;;;1.60;;
65234;SDS011;51820;48.374;10.930;2022-11-04T10:33:27;4.43;;;1.25;;
65234;SDS011;51820;48.374;10.930;2022-11-04T10:36:07;4.43;;;1.30;;
65234;SDS011;51820;48.374;10.930;2022-11-04T10:38:45;4.30;;;1.40;;
65234;SDS011;51820;48.374;10.930;2022-11-04T10:41:19;6.77;;;1.60;;
65234;SDS011;51820;48.374;10.930;2022-11-04T10:43:56;5.03;;;1.33;;
65234;SDS011;51820;48.374;10.930;2022-11-04T10:46:29;8.43;;;1.50;;
65234;SDS011;51820;48.374;10.930;2022-11-04T10:49:21;8.05;;;1.50;;
65234;SDS011;51820;48.374;10.930;2022-11-04T10:52:04;6.88;;;1.80;;
65234;SDS011;51820;48.374;10.930;2022-11-04T10:54:37;5.17;;;1.40;;
65234;SDS011;51820;48.374;10.930;2022-11-04T10:57:06;4.07;;;1.10;;
65234;SDS011;51820;48.374;10.930;2022-11-04T10:59:41;4.60;;;1.10;;
65234;SDS011;51820;48.374;10.930;2022-11-04T11:02:17;4.55;;;1.30;;
65234;SDS011;51820;48.374;10.930;2022-11-04T11:04:48;4.63;;;1.30;;
65234;SDS011;51820;48.374;10.930;2022-11-04T11:07:16;5.93;;;1.20;;
65234;SDS011;51820;48.374;10.930;2022-11-04T11:09:49;5.72;;;1.50;;
65234;SDS011;51820;48.374;10.930;2022-11-04T11:12:22;5.75;;;1.35;;
65234;SDS011;51820;48.374;10.930;2022-11-04T11:15:20;4.07;;;1.27;;
65234;SDS011;51820;48.374;10.930;2022-11-04T11:17:59;4.50;;;1.17;;
65234;SDS011;51820;48.374;10.930;2022-11-04T11:20:40;7.53;;;2.13;;
65234;SDS011;51820;48.374;10.930;2022-11-04T11:26:06;5.85;;;1.48;;
65234;SDS011;51820;48.374;10.930;2022-11-04T11:28:36;4.82;;;1.25;;
65234;SDS011;51820;48.374;10.930;2022-11-04T11:31:10;5.63;;;1.75;;
65234;SDS011;51820;48.374;10.930;2022-11-04T11:33:49;6.90;;;1.30;;
65234;SDS011;51820;48.374;10.930;2022-11-04T11:36:23;6.95;;;1.40;;
65234;SDS011;51820;48.374;10.930;2022-11-04T11:39:00;5.35;;;1.15;;
65234;SDS011;51820;48.374;10.930;2022-11-04T11:42:13;4.65;;;1.20;;
65234;SDS011;51820;48.374;10.930;2022-11-04T11:44:47;4.80;;;1.15;;
65234;SDS011;51820;48.374;10.930;2022-11-04T11:47:18;4.30;;;1.40;;
65234;SDS011;51820;48.374;10.930;2022-11-04T11:50:13;4.53;;;1.30;;
65234;SDS011;51820;48.374;10.930;2022-11-04T11:52:45;3.75;;;1.00;;
65234;SDS011;51820;48.374;10.930;2022-11-04T11:55:23;5.07;;;1.80;;
65234;SDS011;51820;48.374;10.930;2022-11-04T11:57:56;8.13;;;1.90;;
65234;SDS011;51820;48.374;10.930;2022-11-04T12:00:51;5.23;;;1.63;;
65234;SDS011;51820;48.374;10.930;2022-11-04T12:03:37;4.07;;;1.17;;
65234;SDS011;51820;48.374;10.930;2022-11-04T12:06:32;5.28;;;1.30;;
65234;SDS011;51820;48.374;10.930;2022-11-04T12:09:44;8.02;;;1.10;;
65234;SDS011;51820;48.374;10.930;2022-11-04T12:12:20;4.03;;;1.25;;
65234;SDS011;51820;48.374;10.930;2022-11-04T12:15:03;6.90;;;1.97;;
65234;SDS011;51820;48.374;10.930;2022-11-04T12:18:06;4.60;;;1.20;;
65234;SDS011;51820;48.374;10.930;2022-11-04T12:20:51;7.03;;;1.40;;
65234;SDS011;51820;48.374;10.930;2022-11-04T12:23:35;4.65;;;1.27;;
65234;SDS011;51820;48.374;10.930;2022-11-04T12:26:12;5.72;;;1.73;;
65234;SDS011;51820;48.374;10.930;2022-11-04T12:28:52;5.07;;;1.63;;
65234;SDS011;51820;48.374;10.930;2022-11-04T12:31:37;5.63;;;1.42;;
65234;SDS011;51820;48.374;10.930;2022-11-04T12:34:19;4.60;;;1.20;;
65234;SDS011;51820;48.374;10.930;2022-11-04T12:37:00;4.47;;;1.35;;
65234;SDS011;51820;48.374;10.930;2022-11-04T12:39:51;4.80;;;1.67;;
65234;SDS011;51820;48.374;10.930;2022-11-04T12:42:41;7.10;;;1.70;;
65234;SDS011;51820;48.374;10.930;2022-11-04T12:45:21;5.03;;;1.50;;
65234;SDS011;51820;48.374;10.930;2022-11-04T12:47:58;5.07;;;1.70;;
65234;SDS011;51820;48.374;10.930;2022-11-04T12:56:32;8.47;;;3.10;;
65234;SDS011;51820;48.374;10.930;2022-11-04T12:59:18;6.85;;;1.50;;
65234;SDS011;51820;48.374;10.930;2022-11-04T13:02:01;5.55;;;1.63;;
65234;SDS011;51820;48.374;10.930;2022-11-04T13:04:40;4.07;;;1.30;;
65234;SDS011;51820;48.374;10.930;2022-11-04T13:07:15;7.13;;;1.35;;
65234;SDS011;51820;48.374;10.930;2022-11-04T13:09:50;5.10;;;1.40;;
65234;SDS011;51820;48.374;10.930;2022-11-04T13:12:21;5.95;;;1.63;;
65234;SDS011;51820;48.374;10.930;2022-11-04T13:14:54;5.70;;;1.40;;
65234;SDS011;51820;48.374;10.930;2022-11-04T13:17:28;4.70;;;1.35;;
65234;SDS011;51820;48.374;10.930;2022-11-04T13:20:00;5.60;;;1.20;;
65234;SDS011;51820;48.374;10.930;2022-11-04T13:22:33;4.27;;;1.40;;
65234;SDS011;51820;48.374;10.930;2022-11-04T13:25:04;4.00;;;1.20;;
65234;SDS011;51820;48.374;10.930;2022-11-04T13:27:42;5.53;;;1.38;;
65234;SDS011;51820;48.374;10.930;2022-11-04T13:30:17;6.60;;;1.60;;
65234;SDS011;51820;48.374;10.930;2022-11-04T13:32:49;6.55;;;1.50;;
65234;SDS011;51820;48.374;10.930;2022-11-04T13:35:24;4.03;;;1.20;;
65234;SDS011;51820;48.374;10.930;2022-11-04T13:38:06;4.63;;;1.23;;
65234;SDS011;51820;48.374;10.930;2022-11-04T13:41:45;5.00;;;1.40;;
65234;SDS011;51820;48.374;10.930;2022-11-04T13:44:34;4.75;;;1.70;;
65234;SDS011;51820;48.374;10.930;2022-11-04T13:47:12;4.50;;;1.50;;
65234;SDS011;51820;48.374;10.930;2022-11-04T13:49:49;6.00;;;1.50;;
65234;SDS011;51820;48.374;10.930;2022-11-04T13:52:19;4.30;;;1.20;;
65234;SDS011;51820;48.374;10.930;2022-11-04T13:54:51;6.80;;;1.60;;
65234;SDS011;51820;48.374;10.930;2022-11-04T13:57:29;7.95;;;1.77;;
65234;SDS011;51820;48.374;10.930;2022-11-04T14:00:06;5.53;;;1.60;;
65234;SDS011;51820;48.374;10.930;2022-11-04T14:02:49;6.40;;;1.80;;
65234;SDS011;51820;48.374;10.930;2022-11-04T14:08:30;4.55;;;1.20;;
65234;SDS011;51820;48.374;10.930;2022-11-04T14:16:40;6.20;;;1.30;;
65234;SDS011;51820;48.374;10.930;2022-11-04T14:22:33;4.75;;;1.30;;
65234;SDS011;51820;48.374;10.930;2022-11-04T14:25:21;7.95;;;1.58;;
65234;SDS011;51820;48.374;10.930;2022-11-04T14:27:55;5.07;;;1.67;;
65234;SDS011;51820;48.374;10.930;2022-11-04T14:30:35;4.97;;;1.60;;
65234;SDS011;51820;48.374;10.930;2022-11-04T14:33:20;6.45;;;1.60;;
65234;SDS011;51820;48.374;10.930;2022-11-04T14:36:29;5.40;;;1.23;;
65234;SDS011;51820;48.374;10.930;2022-11-04T14:39:06;4.78;;;1.10;;
65234;SDS011;51820;48.374;10.930;2022-11-04T14:41:49;4.25;;;1.20;;
65234;SDS011;51820;48.374;10.930;2022-11-04T14:44:20;4.87;;;1.47;;
65234;SDS011;51820;48.374;10.930;2022-11-04T14:46:56;5.97;;;1.27;;
65234;SDS011;51820;48.374;10.930;2022-11-04T14:49:31;7.90;;;2.60;;
65234;SDS011;51820;48.374;10.930;2022-11-04T14:52:11;8.18;;;2.95;;
65234;SDS011;51820;48.374;10.930;2022-11-04T14:54:42;6.18;;;1.90;;
65234;SDS011;51820;48.374;10.930;2022-11-04T14:57:12;5.20;;;1.43;;
65234;SDS011;51820;48.374;10.930;2022-11-04T14:59:41;7.57;;;1.92;;
65234;SDS011;51820;48.374;10.930;2022-11-04T15:02:11;7.18;;;1.40;;
65234;SDS011;51820;48.374;10.930;2022-11-04T15:04:46;5.30;;;1.35;;
65234;SDS011;51820;48.374;10.930;2022-11-04T15:07:24;5.13;;;1.60;;
65234;SDS011;51820;48.374;10.930;2022-11-04T15:09:59;4.30;;;1.10;;
65234;SDS011;51820;48.374;10.930;2022-11-04T15:12:30;4.53;;;1.10;;
65234;SDS011;51820;48.374;10.930;2022-11-04T15:18:32;6.28;;;1.42;;
65234;SDS011;51820;48.374;10.930;2022-11-04T15:21:02;5.40;;;1.20;;
65234;SDS011;51820;48.374;10.930;2022-11-04T15:23:33;5.07;;;1.50;;
65234;SDS011;51820;48.374;10.930;2022-11-04T15:26:04;6.95;;;1.50;;
65234;SDS011;51820;48.374;10.930;2022-11-04T15:28:37;5.18;;;1.48;;
65234;SDS011;51820;48.374;10.930;2022-11-04T15:31:16;4.65;;;1.42;;
65234;SDS011;51820;48.374;10.930;2022-11-04T15:33:51;5.18;;;1.50;;
65234;SDS011;51820;48.374;10.930;2022-11-04T15:36:21;6.03;;;1.47;;
65234;SDS011;51820;48.374;10.930;2022-11-04T15:38:54;5.47;;;1.40;;
65234;SDS011;51820;48.374;10.930;2022-11-04T15:41:26;7.10;;;1.58;;
65234;SDS011;51820;48.374;10.930;2022-11-04T15:44:18;4.90;;;1.50;;
65234;SDS011;51820;48.374;10.930;2022-11-04T15:46:55;5.93;;;1.75;;
65234;SDS011;51820;48.374;10.930;2022-11-04T15:49:25;4.73;;;1.57;;